sensor_id;sensor_type;location;lat;lon;timestamp;P1;durP1;ratioP1;P2;durP2;ratioP2
8480;SDS011;4277;51.354;6.740;2024-01-25T00:00:53;38.27;;;6.70;;
8480;SDS011;4277;51.354;6.740;2024-01-25T00:03:18;36.30;;;7.10;;
8480;SDS011;4277;51.354;6.740;2024-01-25T00:05:44;33.23;;;7.30;;
8480;SDS011;4277;51.354;6.740;2024-01-25T00:08:10;35.87;;;7.37;;
8480;SDS011;4277;51.354;6.740;2024-01-25T00:10:36;34.47;;;6.50;;
8480;SDS011;4277;51.354;6.740;2024-01-25T00:13:02;34.43;;;7.77;;
8480;SDS011;4277;51.354;6.740;2024-01-25T00:15:28;38.73;;;6.60;;
8480;SDS011;4277;51.354;6.740;2024-01-25T00:17:54;37.67;;;7.57;;
8480;SDS011;4277;51.354;6.740;2024-01-25T00:20:21;38.33;;;7.27;;
8480;SDS011;4277;51.354;6.740;2024-01-25T00:22:47;34.97;;;6.80;;
8480;SDS011;4277;51.354;6.740;2024-01-25T00:25:13;30.63;;;6.73;;
8480;SDS011;4277;51.354;6.740;2024-01-25T00:27:39;31.13;;;6.73;;
8480;SDS011;4277;51.354;6.740;2024-01-25T00:30:05;35.20;;;6.97;;
8480;SDS011;4277;51.354;6.740;2024-01-25T00:32:31;31.53;;;6.80;;
8480;SDS011;4277;51.354;6.740;2024-01-25T00:34:57;35.27;;;7.03;;
8480;SDS011;4277;51.354;6.740;2024-01-25T00:37:23;36.33;;;6.57;;
8480;SDS011;4277;51.354;6.740;2024-01-25T00:39:49;29.00;;;6.17;;
8480;SDS011;4277;51.354;6.740;2024-01-25T00:42:15;29.23;;;6.53;;
8480;SDS011;4277;51.354;6.740;2024-01-25T00:44:42;33.17;;;7.03;;
8480;SDS011;4277;51.354;6.740;2024-01-25T00:47:08;36.33;;;7.07;;
8480;SDS011;4277;51.354;6.740;2024-01-25T00:49:34;39.53;;;6.67;;
8480;SDS011;4277;51.354;6.740;2024-01-25T00:52:00;33.83;;;7.07;;
8480;SDS011;4277;51.354;6.740;2024-01-25T00:54:28;36.17;;;7.47;;
8480;SDS011;4277;51.354;6.740;2024-01-25T00:56:54;32.83;;;6.57;;
8480;SDS011;4277;51.354;6.740;2024-01-25T00:59:20;30.73;;;6.23;;
8480;SDS011;4277;51.354;6.740;2024-01-25T01:01:47;29.17;;;6.57;;
8480;SDS011;4277;51.354;6.740;2024-01-25T01:04:13;32.50;;;6.87;;
8480;SDS011;4277;51.354;6.740;2024-01-25T01:06:40;32.23;;;7.23;;
8480;SDS011;4277;51.354;6.740;2024-01-25T01:09:06;33.07;;;6.17;;
8480;SDS011;4277;51.354;6.740;2024-01-25T01:11:32;28.37;;;6.37;;
8480;SDS011;4277;51.354;6.740;2024-01-25T01:13:58;27.40;;;5.93;;
8480;SDS011;4277;51.354;6.740;2024-01-25T01:16:24;25.50;;;6.40;;
8480;SDS011;4277;51.354;6.740;2024-01-25T01:18:50;40.53;;;7.43;;
8480;SDS011;4277;51.354;6.740;2024-01-25T01:21:16;30.57;;;6.23;;
8480;SDS011;4277;51.354;6.740;2024-01-25T01:23:42;31.80;;;6.67;;
8480;SDS011;4277;51.354;6.740;2024-01-25T01:26:08;29.53;;;5.93;;
8480;SDS011;4277;51.354;6.740;2024-01-25T01:28:34;34.67;;;7.17;;
8480;SDS011;4277;51.354;6.740;2024-01-25T01:31:00;30.93;;;6.83;;
8480;SDS011;4277;51.354;6.740;2024-01-25T01:33:26;32.83;;;6.90;;
8480;SDS011;4277;51.354;6.740;2024-01-25T01:35:52;35.20;;;5.63;;
8480;SDS011;4277;51.354;6.740;2024-01-25T01:38:17;37.60;;;7.30;;
8480;SDS011;4277;51.354;6.740;2024-01-25T01:40:44;29.37;;;6.90;;
8480;SDS011;4277;51.354;6.740;2024-01-25T01:43:17;28.20;;;7.13;;
8480;SDS011;4277;51.354;6.740;2024-01-25T01:45:43;28.50;;;6.03;;
8480;SDS011;4277;51.354;6.740;2024-01-25T01:48:09;35.30;;;7.37;;
8480;SDS011;4277;51.354;6.740;2024-01-25T01:50:35;31.40;;;6.47;;
8480;SDS011;4277;51.354;6.740;2024-01-25T01:53:01;29.90;;;5.83;;
8480;SDS011;4277;51.354;6.740;2024-01-25T01:55:27;33.70;;;6.37;;
8480;SDS011;4277;51.354;6.740;2024-01-25T01:57:53;29.03;;;6.10;;
8480;SDS011;4277;51.354;6.740;2024-01-25T02:00:19;33.53;;;6.40;;
8480;SDS011;4277;51.354;6.740;2024-01-25T02:02:46;32.27;;;5.87;;
8480;SDS011;4277;51.354;6.740;2024-01-25T02:05:12;30.03;;;6.23;;
8480;SDS011;4277;51.354;6.740;2024-01-25T02:07:38;31.50;;;6.33;;
8480;SDS011;4277;51.354;6.740;2024-01-25T02:10:06;31.57;;;6.17;;
8480;SDS011;4277;51.354;6.740;2024-01-25T02:12:32;26.17;;;5.73;;
8480;SDS011;4277;51.354;6.740;2024-01-25T02:14:58;33.60;;;6.10;;
8480;SDS011;4277;51.354;6.740;2024-01-25T02:17:23;31.17;;;6.37;;
8480;SDS011;4277;51.354;6.740;2024-01-25T02:19:50;31.30;;;6.00;;
8480;SDS011;4277;51.354;6.740;2024-01-25T02:22:19;32.43;;;6.27;;
8480;SDS011;4277;51.354;6.740;2024-01-25T02:24:45;30.40;;;6.20;;
8480;SDS011;4277;51.354;6.740;2024-01-25T02:27:11;34.70;;;7.23;;
8480;SDS011;4277;51.354;6.740;2024-01-25T02:29:37;32.00;;;5.70;;
8480;SDS011;4277;51.354;6.740;2024-01-25T02:32:03;27.57;;;6.07;;
8480;SDS011;4277;51.354;6.740;2024-01-25T02:34:29;30.33;;;6.03;;
8480;SDS011;4277;51.354;6.740;2024-01-25T02:36:55;39.73;;;7.60;;
8480;SDS011;4277;51.354;6.740;2024-01-25T02:39:21;27.80;;;5.83;;
8480;SDS011;4277;51.354;6.740;2024-01-25T02:41:47;38.90;;;6.93;;
8480;SDS011;4277;51.354;6.740;2024-01-25T02:44:13;29.67;;;6.30;;
8480;SDS011;4277;51.354;6.740;2024-01-25T02:46:39;25.23;;;6.03;;
8480;SDS011;4277;51.354;6.740;2024-01-25T02:49:05;30.53;;;6.37;;
8480;SDS011;4277;51.354;6.740;2024-01-25T02:51:30;31.73;;;6.17;;
8480;SDS011;4277;51.354;6.740;2024-01-25T02:53:56;33.90;;;6.40;;
8480;SDS011;4277;51.354;6.740;2024-01-25T02:56:22;38.70;;;6.87;;
8480;SDS011;4277;51.354;6.740;2024-01-25T02:58:48;31.80;;;6.57;;
8480;SDS011;4277;51.354;6.740;2024-01-25T03:01:14;29.20;;;6.40;;
8480;SDS011;4277;51.354;6.740;2024-01-25T03:03:40;35.63;;;6.63;;
8480;SDS011;4277;51.354;6.740;2024-01-25T03:06:06;26.10;;;5.87;;
8480;SDS011;4277;51.354;6.740;2024-01-25T03:08:34;35.53;;;6.90;;
8480;SDS011;4277;51.354;6.740;2024-01-25T03:10:59;32.67;;;6.27;;
8480;SDS011;4277;51.354;6.740;2024-01-25T03:13:28;29.77;;;6.03;;
8480;SDS011;4277;51.354;6.740;2024-01-25T03:15:54;31.10;;;6.20;;
8480;SDS011;4277;51.354;6.740;2024-01-25T03:18:20;37.70;;;6.23;;
8480;SDS011;4277;51.354;6.740;2024-01-25T03:20:46;34.37;;;6.70;;
8480;SDS011;4277;51.354;6.740;2024-01-25T03:23:15;34.17;;;7.10;;
8480;SDS011;4277;51.354;6.740;2024-01-25T03:25:41;33.50;;;6.40;;
8480;SDS011;4277;51.354;6.740;2024-01-25T03:28:07;29.40;;;6.37;;
8480;SDS011;4277;51.354;6.740;2024-01-25T03:30:34;28.40;;;6.67;;
8480;SDS011;4277;51.354;6.740;2024-01-25T03:33:00;32.57;;;6.83;;
8480;SDS011;4277;51.354;6.740;2024-01-25T03:35:26;30.53;;;6.67;;
8480;SDS011;4277;51.354;6.740;2024-01-25T03:37:52;35.10;;;7.43;;
8480;SDS011;4277;51.354;6.740;2024-01-25T03:40:18;36.97;;;7.70;;
8480;SDS011;4277;51.354;6.740;2024-01-25T03:42:44;33.87;;;6.27;;
8480;SDS011;4277;51.354;6.740;2024-01-25T03:45:10;28.60;;;6.63;;
8480;SDS011;4277;51.354;6.740;2024-01-25T03:47:36;28.93;;;5.77;;
8480;SDS011;4277;51.354;6.740;2024-01-25T03:50:02;30.20;;;6.03;;
8480;SDS011;4277;51.354;6.740;2024-01-25T03:52:28;32.10;;;6.33;;
8480;SDS011;4277;51.354;6.740;2024-01-25T03:54:55;33.50;;;6.00;;
8480;SDS011;4277;51.354;6.740;2024-01-25T03:57:21;31.07;;;6.03;;
8480;SDS011;4277;51.354;6.740;2024-01-25T03:59:47;32.57;;;6.53;;
8480;SDS011;4277;51.354;6.740;2024-01-25T04:02:13;34.77;;;6.37;;
8480;SDS011;4277;51.354;6.740;2024-01-25T04:04:39;33.63;;;6.23;;
8480;SDS011;4277;51.354;6.740;2024-01-25T04:07:05;39.40;;;6.63;;
8480;SDS011;4277;51.354;6.740;2024-01-25T04:09:31;32.80;;;6.80;;
8480;SDS011;4277;51.354;6.740;2024-01-25T04:11:57;33.37;;;6.57;;
8480;SDS011;4277;51.354;6.740;2024-01-25T04:14:23;27.97;;;6.63;;
8480;SDS011;4277;51.354;6.740;2024-01-25T04:16:49;32.67;;;6.20;;
8480;SDS011;4277;51.354;6.740;2024-01-25T04:19:15;31.10;;;5.90;;
8480;SDS011;4277;51.354;6.740;2024-01-25T04:21:40;30.07;;;6.30;;
8480;SDS011;4277;51.354;6.740;2024-01-25T04:24:06;30.93;;;6.13;;
8480;SDS011;4277;51.354;6.740;2024-01-25T04:26:32;29.17;;;5.90;;
8480;SDS011;4277;51.354;6.740;2024-01-25T04:28:58;27.13;;;6.40;;
8480;SDS011;4277;51.354;6.740;2024-01-25T04:31:24;33.47;;;5.97;;
8480;SDS011;4277;51.354;6.740;2024-01-25T04:33:50;32.67;;;6.60;;
8480;SDS011;4277;51.354;6.740;2024-01-25T04:36:16;32.53;;;6.47;;
8480;SDS011;4277;51.354;6.740;2024-01-25T04:38:42;33.30;;;6.00;;
8480;SDS011;4277;51.354;6.740;2024-01-25T04:41:08;35.57;;;6.23;;
8480;SDS011;4277;51.354;6.740;2024-01-25T04:43:35;33.23;;;6.80;;
8480;SDS011;4277;51.354;6.740;2024-01-25T04:46:04;33.77;;;6.23;;
8480;SDS011;4277;51.354;6.740;2024-01-25T04:48:30;37.07;;;6.37;;
8480;SDS011;4277;51.354;6.740;2024-01-25T04:50:57;30.50;;;5.87;;
8480;SDS011;4277;51.354;6.740;2024-01-25T04:53:23;32.93;;;6.30;;
8480;SDS011;4277;51.354;6.740;2024-01-25T04:55:49;27.40;;;5.60;;
8480;SDS011;4277;51.354;6.740;2024-01-25T04:58:15;31.67;;;6.00;;
8480;SDS011;4277;51.354;6.740;2024-01-25T05:00:41;26.53;;;6.20;;
8480;SDS011;4277;51.354;6.740;2024-01-25T05:03:07;30.60;;;6.20;;
8480;SDS011;4277;51.354;6.740;2024-01-25T05:05:33;30.00;;;6.07;;
8480;SDS011;4277;51.354;6.740;2024-01-25T05:07:59;30.47;;;6.10;;
8480;SDS011;4277;51.354;6.740;2024-01-25T05:10:25;26.83;;;5.33;;
8480;SDS011;4277;51.354;6.740;2024-01-25T05:12:52;25.53;;;5.27;;
8480;SDS011;4277;51.354;6.740;2024-01-25T05:15:18;26.87;;;5.90;;
8480;SDS011;4277;51.354;6.740;2024-01-25T05:17:44;24.53;;;4.73;;
8480;SDS011;4277;51.354;6.740;2024-01-25T05:20:10;33.00;;;6.10;;
8480;SDS011;4277;51.354;6.740;2024-01-25T05:22:37;25.87;;;5.37;;
8480;SDS011;4277;51.354;6.740;2024-01-25T05:25:05;24.87;;;4.93;;
8480;SDS011;4277;51.354;6.740;2024-01-25T05:27:33;26.50;;;5.23;;
8480;SDS011;4277;51.354;6.740;2024-01-25T05:30:02;26.50;;;6.03;;
8480;SDS011;4277;51.354;6.740;2024-01-25T05:32:29;23.37;;;5.13;;
8480;SDS011;4277;51.354;6.740;2024-01-25T05:34:55;23.50;;;4.87;;
8480;SDS011;4277;51.354;6.740;2024-01-25T05:37:21;23.57;;;5.43;;
8480;SDS011;4277;51.354;6.740;2024-01-25T05:39:47;25.43;;;5.50;;
8480;SDS011;4277;51.354;6.740;2024-01-25T05:42:13;23.07;;;5.33;;
8480;SDS011;4277;51.354;6.740;2024-01-25T05:44:38;27.07;;;5.40;;
8480;SDS011;4277;51.354;6.740;2024-01-25T05:47:04;22.67;;;5.73;;
8480;SDS011;4277;51.354;6.740;2024-01-25T05:49:30;26.10;;;5.13;;
8480;SDS011;4277;51.354;6.740;2024-01-25T05:51:56;21.87;;;5.33;;
8480;SDS011;4277;51.354;6.740;2024-01-25T05:54:22;26.93;;;5.70;;
8480;SDS011;4277;51.354;6.740;2024-01-25T05:56:48;20.47;;;4.80;;
8480;SDS011;4277;51.354;6.740;2024-01-25T05:59:14;23.60;;;5.33;;
8480;SDS011;4277;51.354;6.740;2024-01-25T06:01:40;26.90;;;5.50;;
8480;SDS011;4277;51.354;6.740;2024-01-25T06:04:06;21.93;;;5.23;;
8480;SDS011;4277;51.354;6.740;2024-01-25T06:06:32;26.97;;;5.80;;
8480;SDS011;4277;51.354;6.740;2024-01-25T06:08:58;31.30;;;6.40;;
8480;SDS011;4277;51.354;6.740;2024-01-25T06:11:24;27.83;;;5.97;;
8480;SDS011;4277;51.354;6.740;2024-01-25T06:13:49;26.27;;;6.67;;
8480;SDS011;4277;51.354;6.740;2024-01-25T06:16:15;25.53;;;6.23;;
8480;SDS011;4277;51.354;6.740;2024-01-25T06:18:41;25.67;;;6.20;;
8480;SDS011;4277;51.354;6.740;2024-01-25T06:21:07;26.80;;;6.30;;
8480;SDS011;4277;51.354;6.740;2024-01-25T06:23:33;22.70;;;5.30;;
8480;SDS011;4277;51.354;6.740;2024-01-25T06:25:59;25.53;;;6.07;;
8480;SDS011;4277;51.354;6.740;2024-01-25T06:28:26;746.10;;;43.77;;
8480;SDS011;4277;51.354;6.740;2024-01-25T06:30:52;30.67;;;5.60;;
8480;SDS011;4277;51.354;6.740;2024-01-25T06:33:17;29.87;;;6.07;;
8480;SDS011;4277;51.354;6.740;2024-01-25T06:35:43;31.47;;;6.20;;
8480;SDS011;4277;51.354;6.740;2024-01-25T06:38:10;35.03;;;6.67;;
8480;SDS011;4277;51.354;6.740;2024-01-25T06:40:35;29.93;;;6.60;;
8480;SDS011;4277;51.354;6.740;2024-01-25T06:43:01;30.97;;;6.57;;
8480;SDS011;4277;51.354;6.740;2024-01-25T06:45:28;28.60;;;5.47;;
8480;SDS011;4277;51.354;6.740;2024-01-25T06:47:54;30.73;;;6.93;;
8480;SDS011;4277;51.354;6.740;2024-01-25T06:50:20;35.27;;;5.97;;
8480;SDS011;4277;51.354;6.740;2024-01-25T06:52:46;29.27;;;6.03;;
8480;SDS011;4277;51.354;6.740;2024-01-25T06:55:13;25.20;;;5.90;;
8480;SDS011;4277;51.354;6.740;2024-01-25T06:57:39;26.93;;;5.97;;
8480;SDS011;4277;51.354;6.740;2024-01-25T07:00:05;29.37;;;6.03;;
8480;SDS011;4277;51.354;6.740;2024-01-25T07:02:31;28.77;;;6.77;;
8480;SDS011;4277;51.354;6.740;2024-01-25T07:04:57;22.30;;;5.20;;
8480;SDS011;4277;51.354;6.740;2024-01-25T07:07:23;32.83;;;6.33;;
8480;SDS011;4277;51.354;6.740;2024-01-25T07:09:49;20.17;;;5.43;;
8480;SDS011;4277;51.354;6.740;2024-01-25T07:12:15;28.03;;;5.87;;
8480;SDS011;4277;51.354;6.740;2024-01-25T07:14:41;26.10;;;5.80;;
8480;SDS011;4277;51.354;6.740;2024-01-25T07:17:07;26.20;;;5.60;;
8480;SDS011;4277;51.354;6.740;2024-01-25T07:19:33;24.13;;;6.30;;
8480;SDS011;4277;51.354;6.740;2024-01-25T07:21:59;28.60;;;6.13;;
8480;SDS011;4277;51.354;6.740;2024-01-25T07:24:25;23.00;;;5.50;;
8480;SDS011;4277;51.354;6.740;2024-01-25T07:26:52;21.77;;;5.10;;
8480;SDS011;4277;51.354;6.740;2024-01-25T07:29:17;24.73;;;5.73;;
8480;SDS011;4277;51.354;6.740;2024-01-25T07:31:43;36.80;;;7.53;;
8480;SDS011;4277;51.354;6.740;2024-01-25T07:34:09;39.43;;;7.43;;
8480;SDS011;4277;51.354;6.740;2024-01-25T07:36:35;36.03;;;7.30;;
8480;SDS011;4277;51.354;6.740;2024-01-25T07:39:01;34.40;;;7.40;;
8480;SDS011;4277;51.354;6.740;2024-01-25T07:41:27;36.83;;;6.90;;
8480;SDS011;4277;51.354;6.740;2024-01-25T07:43:53;35.60;;;7.37;;
8480;SDS011;4277;51.354;6.740;2024-01-25T07:46:20;28.50;;;6.20;;
8480;SDS011;4277;51.354;6.740;2024-01-25T07:48:46;38.90;;;6.90;;
8480;SDS011;4277;51.354;6.740;2024-01-25T07:51:13;32.43;;;6.10;;
8480;SDS011;4277;51.354;6.740;2024-01-25T07:53:39;37.83;;;7.37;;
8480;SDS011;4277;51.354;6.740;2024-01-25T07:56:08;33.63;;;7.37;;
8480;SDS011;4277;51.354;6.740;2024-01-25T07:58:35;33.97;;;7.00;;
8480;SDS011;4277;51.354;6.740;2024-01-25T08:01:04;44.17;;;8.30;;
8480;SDS011;4277;51.354;6.740;2024-01-25T08:03:34;32.00;;;6.83;;
8480;SDS011;4277;51.354;6.740;2024-01-25T08:06:01;29.13;;;7.53;;
8480;SDS011;4277;51.354;6.740;2024-01-25T08:08:27;39.53;;;6.90;;
8480;SDS011;4277;51.354;6.740;2024-01-25T08:10:53;46.10;;;7.30;;
8480;SDS011;4277;51.354;6.740;2024-01-25T08:13:19;38.80;;;7.60;;
8480;SDS011;4277;51.354;6.740;2024-01-25T08:15:46;30.13;;;7.47;;
8480;SDS011;4277;51.354;6.740;2024-01-25T08:18:12;40.80;;;8.10;;
8480;SDS011;4277;51.354;6.740;2024-01-25T08:20:38;42.20;;;8.63;;
8480;SDS011;4277;51.354;6.740;2024-01-25T08:23:04;45.30;;;8.27;;
8480;SDS011;4277;51.354;6.740;2024-01-25T08:25:30;46.20;;;8.70;;
8480;SDS011;4277;51.354;6.740;2024-01-25T08:27:55;42.10;;;8.03;;
8480;SDS011;4277;51.354;6.740;2024-01-25T08:30:21;36.57;;;7.87;;
8480;SDS011;4277;51.354;6.740;2024-01-25T08:32:47;43.97;;;9.37;;
8480;SDS011;4277;51.354;6.740;2024-01-25T08:35:13;50.03;;;8.80;;
8480;SDS011;4277;51.354;6.740;2024-01-25T08:37:39;47.93;;;9.20;;
8480;SDS011;4277;51.354;6.740;2024-01-25T08:40:05;48.87;;;9.27;;
8480;SDS011;4277;51.354;6.740;2024-01-25T08:42:32;56.40;;;9.40;;
8480;SDS011;4277;51.354;6.740;2024-01-25T08:44:58;48.33;;;9.40;;
8480;SDS011;4277;51.354;6.740;2024-01-25T08:47:24;48.23;;;9.20;;
8480;SDS011;4277;51.354;6.740;2024-01-25T08:49:49;45.60;;;8.60;;
8480;SDS011;4277;51.354;6.740;2024-01-25T08:52:15;46.20;;;10.07;;
8480;SDS011;4277;51.354;6.740;2024-01-25T08:54:41;36.90;;;8.87;;
8480;SDS011;4277;51.354;6.740;2024-01-25T08:57:08;43.70;;;9.57;;
8480;SDS011;4277;51.354;6.740;2024-01-25T08:59:34;44.77;;;9.40;;
8480;SDS011;4277;51.354;6.740;2024-01-25T09:02:03;38.27;;;8.13;;
8480;SDS011;4277;51.354;6.740;2024-01-25T09:04:29;47.63;;;9.33;;
8480;SDS011;4277;51.354;6.740;2024-01-25T09:06:55;49.43;;;10.13;;
8480;SDS011;4277;51.354;6.740;2024-01-25T09:09:21;48.27;;;9.43;;
8480;SDS011;4277;51.354;6.740;2024-01-25T09:11:47;44.33;;;10.67;;
8480;SDS011;4277;51.354;6.740;2024-01-25T09:14:13;48.13;;;9.70;;
8480;SDS011;4277;51.354;6.740;2024-01-25T09:16:39;47.97;;;9.80;;
8480;SDS011;4277;51.354;6.740;2024-01-25T09:19:05;42.80;;;10.27;;
8480;SDS011;4277;51.354;6.740;2024-01-25T09:21:31;40.60;;;10.30;;
8480;SDS011;4277;51.354;6.740;2024-01-25T09:23:57;51.97;;;10.97;;
8480;SDS011;4277;51.354;6.740;2024-01-25T09:26:24;50.47;;;11.77;;
8480;SDS011;4277;51.354;6.740;2024-01-25T09:28:50;50.77;;;12.60;;
8480;SDS011;4277;51.354;6.740;2024-01-25T09:31:16;48.50;;;12.30;;
8480;SDS011;4277;51.354;6.740;2024-01-25T09:33:42;50.07;;;14.10;;
8480;SDS011;4277;51.354;6.740;2024-01-25T09:36:08;52.13;;;14.60;;
8480;SDS011;4277;51.354;6.740;2024-01-25T09:38:34;52.77;;;14.90;;
8480;SDS011;4277;51.354;6.740;2024-01-25T09:41:00;54.10;;;15.23;;
8480;SDS011;4277;51.354;6.740;2024-01-25T09:43:26;52.00;;;16.43;;
8480;SDS011;4277;51.354;6.740;2024-01-25T09:45:53;58.33;;;17.37;;
8480;SDS011;4277;51.354;6.740;2024-01-25T09:48:22;56.37;;;17.03;;
8480;SDS011;4277;51.354;6.740;2024-01-25T09:50:48;55.27;;;17.70;;
8480;SDS011;4277;51.354;6.740;2024-01-25T09:53:20;58.40;;;18.27;;
8480;SDS011;4277;51.354;6.740;2024-01-25T09:55:48;58.13;;;18.60;;
8480;SDS011;4277;51.354;6.740;2024-01-25T09:58:20;56.57;;;18.27;;
8480;SDS011;4277;51.354;6.740;2024-01-25T10:00:46;57.00;;;18.20;;
8480;SDS011;4277;51.354;6.740;2024-01-25T10:03:12;51.17;;;17.77;;
8480;SDS011;4277;51.354;6.740;2024-01-25T10:05:38;52.50;;;18.90;;
8480;SDS011;4277;51.354;6.740;2024-01-25T10:08:04;53.47;;;19.03;;
8480;SDS011;4277;51.354;6.740;2024-01-25T10:10:31;51.50;;;18.07;;
8480;SDS011;4277;51.354;6.740;2024-01-25T10:12:58;52.30;;;18.10;;
8480;SDS011;4277;51.354;6.740;2024-01-25T10:15:24;52.10;;;18.53;;
8480;SDS011;4277;51.354;6.740;2024-01-25T10:17:50;42.70;;;17.73;;
8480;SDS011;4277;51.354;6.740;2024-01-25T10:20:16;43.57;;;17.03;;
8480;SDS011;4277;51.354;6.740;2024-01-25T10:22:42;44.30;;;17.37;;
8480;SDS011;4277;51.354;6.740;2024-01-25T10:25:11;47.23;;;17.67;;
8480;SDS011;4277;51.354;6.740;2024-01-25T10:27:38;46.03;;;17.23;;
8480;SDS011;4277;51.354;6.740;2024-01-25T10:30:06;45.47;;;17.87;;
8480;SDS011;4277;51.354;6.740;2024-01-25T10:32:32;47.73;;;18.17;;
8480;SDS011;4277;51.354;6.740;2024-01-25T10:34:58;48.00;;;17.47;;
8480;SDS011;4277;51.354;6.740;2024-01-25T10:37:24;44.33;;;18.13;;
8480;SDS011;4277;51.354;6.740;2024-01-25T10:39:50;42.40;;;16.97;;
8480;SDS011;4277;51.354;6.740;2024-01-25T10:42:16;43.67;;;17.10;;
8480;SDS011;4277;51.354;6.740;2024-01-25T10:44:42;45.40;;;17.23;;
8480;SDS011;4277;51.354;6.740;2024-01-25T10:47:10;44.23;;;17.23;;
8480;SDS011;4277;51.354;6.740;2024-01-25T10:49:36;46.73;;;16.37;;
8480;SDS011;4277;51.354;6.740;2024-01-25T10:52:04;47.33;;;17.17;;
8480;SDS011;4277;51.354;6.740;2024-01-25T10:54:30;51.40;;;17.17;;
8480;SDS011;4277;51.354;6.740;2024-01-25T10:56:56;49.57;;;16.83;;
8480;SDS011;4277;51.354;6.740;2024-01-25T10:59:24;45.43;;;16.07;;
8480;SDS011;4277;51.354;6.740;2024-01-25T11:01:54;44.87;;;15.07;;
8480;SDS011;4277;51.354;6.740;2024-01-25T11:04:20;44.63;;;16.17;;
8480;SDS011;4277;51.354;6.740;2024-01-25T11:06:46;46.13;;;15.60;;
8480;SDS011;4277;51.354;6.740;2024-01-25T11:09:19;48.50;;;15.80;;
8480;SDS011;4277;51.354;6.740;2024-01-25T11:11:46;44.80;;;15.57;;
8480;SDS011;4277;51.354;6.740;2024-01-25T11:14:16;40.60;;;14.70;;
8480;SDS011;4277;51.354;6.740;2024-01-25T11:16:43;47.50;;;14.93;;
8480;SDS011;4277;51.354;6.740;2024-01-25T11:19:19;44.77;;;15.37;;
8480;SDS011;4277;51.354;6.740;2024-01-25T11:21:49;45.03;;;15.63;;
8480;SDS011;4277;51.354;6.740;2024-01-25T11:24:16;43.43;;;15.17;;
8480;SDS011;4277;51.354;6.740;2024-01-25T11:26:42;48.30;;;14.90;;
8480;SDS011;4277;51.354;6.740;2024-01-25T11:31:41;44.93;;;14.63;;
8480;SDS011;4277;51.354;6.740;2024-01-25T11:34:09;48.10;;;13.43;;
8480;SDS011;4277;51.354;6.740;2024-01-25T11:36:36;36.63;;;13.20;;
8480;SDS011;4277;51.354;6.740;2024-01-25T11:39:01;47.70;;;13.50;;
8480;SDS011;4277;51.354;6.740;2024-01-25T11:41:28;47.07;;;13.67;;
8480;SDS011;4277;51.354;6.740;2024-01-25T11:43:54;43.27;;;13.30;;
8480;SDS011;4277;51.354;6.740;2024-01-25T11:46:20;43.43;;;12.53;;
8480;SDS011;4277;51.354;6.740;2024-01-25T11:48:46;50.33;;;13.87;;
8480;SDS011;4277;51.354;6.740;2024-01-25T11:51:12;44.20;;;14.00;;
8480;SDS011;4277;51.354;6.740;2024-01-25T11:53:39;39.93;;;13.63;;
8480;SDS011;4277;51.354;6.740;2024-01-25T11:56:06;38.20;;;13.20;;
8480;SDS011;4277;51.354;6.740;2024-01-25T11:58:33;47.10;;;14.40;;
8480;SDS011;4277;51.354;6.740;2024-01-25T12:00:59;36.33;;;13.93;;
8480;SDS011;4277;51.354;6.740;2024-01-25T12:03:26;53.23;;;15.23;;
8480;SDS011;4277;51.354;6.740;2024-01-25T12:05:52;48.73;;;15.87;;
8480;SDS011;4277;51.354;6.740;2024-01-25T12:08:18;46.10;;;14.90;;
8480;SDS011;4277;51.354;6.740;2024-01-25T12:10:44;40.63;;;14.93;;
8480;SDS011;4277;51.354;6.740;2024-01-25T12:13:10;46.57;;;15.37;;
8480;SDS011;4277;51.354;6.740;2024-01-25T12:15:36;45.50;;;15.60;;
8480;SDS011;4277;51.354;6.740;2024-01-25T12:18:02;38.60;;;14.40;;
8480;SDS011;4277;51.354;6.740;2024-01-25T12:20:28;46.83;;;16.03;;
8480;SDS011;4277;51.354;6.740;2024-01-25T12:22:54;41.17;;;15.10;;
8480;SDS011;4277;51.354;6.740;2024-01-25T12:25:20;41.53;;;15.43;;
8480;SDS011;4277;51.354;6.740;2024-01-25T12:27:47;44.40;;;15.27;;
8480;SDS011;4277;51.354;6.740;2024-01-25T12:30:15;47.77;;;15.83;;
8480;SDS011;4277;51.354;6.740;2024-01-25T12:32:41;46.83;;;16.50;;
8480;SDS011;4277;51.354;6.740;2024-01-25T12:35:07;55.33;;;17.10;;
8480;SDS011;4277;51.354;6.740;2024-01-25T12:37:33;48.87;;;17.30;;
8480;SDS011;4277;51.354;6.740;2024-01-25T12:40:00;50.97;;;17.57;;
8480;SDS011;4277;51.354;6.740;2024-01-25T12:42:26;51.10;;;17.60;;
8480;SDS011;4277;51.354;6.740;2024-01-25T12:44:52;44.13;;;17.00;;
8480;SDS011;4277;51.354;6.740;2024-01-25T12:47:21;45.27;;;16.63;;
8480;SDS011;4277;51.354;6.740;2024-01-25T12:49:47;44.93;;;16.60;;
8480;SDS011;4277;51.354;6.740;2024-01-25T12:52:14;45.03;;;17.47;;
8480;SDS011;4277;51.354;6.740;2024-01-25T12:54:40;43.33;;;17.60;;
8480;SDS011;4277;51.354;6.740;2024-01-25T12:57:07;51.60;;;18.03;;
8480;SDS011;4277;51.354;6.740;2024-01-25T12:59:33;48.13;;;17.77;;
8480;SDS011;4277;51.354;6.740;2024-01-25T13:01:59;51.50;;;18.83;;
8480;SDS011;4277;51.354;6.740;2024-01-25T13:04:25;56.10;;;18.30;;
8480;SDS011;4277;51.354;6.740;2024-01-25T13:06:52;55.67;;;17.87;;
8480;SDS011;4277;51.354;6.740;2024-01-25T13:09:19;46.03;;;18.03;;
8480;SDS011;4277;51.354;6.740;2024-01-25T13:11:46;51.80;;;19.10;;
8480;SDS011;4277;51.354;6.740;2024-01-25T13:14:12;51.30;;;18.43;;
8480;SDS011;4277;51.354;6.740;2024-01-25T13:16:37;50.80;;;18.60;;
8480;SDS011;4277;51.354;6.740;2024-01-25T13:19:04;51.27;;;19.03;;
8480;SDS011;4277;51.354;6.740;2024-01-25T13:21:30;43.67;;;17.53;;
8480;SDS011;4277;51.354;6.740;2024-01-25T13:23:56;51.83;;;18.73;;
8480;SDS011;4277;51.354;6.740;2024-01-25T13:26:22;46.63;;;18.37;;
8480;SDS011;4277;51.354;6.740;2024-01-25T13:28:48;42.33;;;17.83;;
8480;SDS011;4277;51.354;6.740;2024-01-25T13:31:14;53.13;;;18.87;;
8480;SDS011;4277;51.354;6.740;2024-01-25T13:33:40;49.90;;;18.00;;
8480;SDS011;4277;51.354;6.740;2024-01-25T13:36:06;49.57;;;18.27;;
8480;SDS011;4277;51.354;6.740;2024-01-25T13:38:34;48.60;;;17.00;;
8480;SDS011;4277;51.354;6.740;2024-01-25T13:41:00;47.03;;;18.20;;
8480;SDS011;4277;51.354;6.740;2024-01-25T13:43:26;44.63;;;17.77;;
8480;SDS011;4277;51.354;6.740;2024-01-25T13:45:52;42.17;;;17.13;;
8480;SDS011;4277;51.354;6.740;2024-01-25T13:48:18;46.47;;;17.27;;
8480;SDS011;4277;51.354;6.740;2024-01-25T13:50:44;46.57;;;16.67;;
8480;SDS011;4277;51.354;6.740;2024-01-25T13:53:10;44.23;;;16.83;;
8480;SDS011;4277;51.354;6.740;2024-01-25T13:55:36;55.27;;;17.97;;
8480;SDS011;4277;51.354;6.740;2024-01-25T13:58:02;43.77;;;17.10;;
8480;SDS011;4277;51.354;6.740;2024-01-25T14:00:28;46.03;;;17.13;;
8480;SDS011;4277;51.354;6.740;2024-01-25T14:02:54;51.67;;;16.83;;
8480;SDS011;4277;51.354;6.740;2024-01-25T14:05:20;53.27;;;16.67;;
8480;SDS011;4277;51.354;6.740;2024-01-25T14:07:46;46.77;;;15.53;;
8480;SDS011;4277;51.354;6.740;2024-01-25T14:10:12;40.90;;;14.83;;
8480;SDS011;4277;51.354;6.740;2024-01-25T14:12:38;44.00;;;15.93;;
8480;SDS011;4277;51.354;6.740;2024-01-25T14:15:04;37.20;;;16.57;;
8480;SDS011;4277;51.354;6.740;2024-01-25T14:17:30;47.80;;;16.23;;
8480;SDS011;4277;51.354;6.740;2024-01-25T14:19:56;42.63;;;14.87;;
8480;SDS011;4277;51.354;6.740;2024-01-25T14:22:22;44.17;;;14.43;;
8480;SDS011;4277;51.354;6.740;2024-01-25T14:24:48;41.80;;;15.53;;
8480;SDS011;4277;51.354;6.740;2024-01-25T14:27:14;48.87;;;15.40;;
8480;SDS011;4277;51.354;6.740;2024-01-25T14:29:40;40.47;;;14.67;;
8480;SDS011;4277;51.354;6.740;2024-01-25T14:32:06;41.13;;;14.80;;
8480;SDS011;4277;51.354;6.740;2024-01-25T14:34:32;42.70;;;15.40;;
8480;SDS011;4277;51.354;6.740;2024-01-25T14:36:58;44.77;;;14.87;;
8480;SDS011;4277;51.354;6.740;2024-01-25T14:39:24;48.03;;;14.63;;
8480;SDS011;4277;51.354;6.740;2024-01-25T14:41:50;44.47;;;15.70;;
8480;SDS011;4277;51.354;6.740;2024-01-25T14:44:16;45.67;;;15.43;;
8480;SDS011;4277;51.354;6.740;2024-01-25T14:46:42;41.77;;;14.93;;
8480;SDS011;4277;51.354;6.740;2024-01-25T14:49:08;34.80;;;15.30;;
8480;SDS011;4277;51.354;6.740;2024-01-25T14:51:34;46.20;;;14.50;;